Time;durP1;ratioP1;P1;durP2;ratioP2;P2;SDS_P1;SDS_P2;PMS_P1;PMS_P2;Temp;Humidity;BMP_temperature;BMP_pressure;BME280_temperature;BME280_humidity;BME280_pressure;Samples;Min_cycle;Max_cycle;Signal;HPM_P1;HPM_P2
2023/02/25 00:00:18;;;;;;;8.25;7.15;;;;;;;;;;5058636;28;20500;-51
2023/02/25 00:02:44;;;;;;;7.63;6.75;;;;;;;;;;5054853;28;20440;-51
2023/02/25 00:05:10;;;;;;;7.35;6.40;;;;;;;;;;5047450;28;20193;-51
2023/02/25 00:07:36;;;;;;;6.97;6.28;;;;;;;;;;5047745;28;20589;-51
2023/02/25 00:10:02;;;;;;;8.93;6.35;;;;;;;;;;5065860;28;20230;-51
2023/02/25 00:12:28;;;;;;;6.75;6.05;;;;;;;;;;5051161;28;20228;-51
2023/02/25 00:14:55;;;;;;;6.35;5.75;;;;;;;;;;5051332;28;20219;-50
2023/02/25 00:17:20;;;;;;;7.55;6.22;;;;;;;;;;5054119;28;20253;-51
2023/02/25 00:19:46;;;;;;;7.43;5.90;;;;;;;;;;5057513;28;20281;-50
2023/02/25 00:22:12;;;;;;;5.70;5.07;;;;;;;;;;5059757;28;20454;-50
2023/02/25 00:24:38;;;;;;;6.57;5.68;;;;;;;;;;5068593;28;20181;-50
2023/02/25 00:27:04;;;;;;;6.28;5.68;;;;;;;;;;5056264;28;20192;-51
2023/02/25 00:29:30;;;;;;;5.88;5.28;;;;;;;;;;5050426;28;20197;-51
2023/02/25 00:31:56;;;;;;;6.07;5.47;;;;;;;;;;5055045;28;20206;-51
2023/02/25 00:34:22;;;;;;;6.03;5.43;;;;;;;;;;5061092;28;20493;-51
2023/02/25 00:36:48;;;;;;;5.47;4.90;;;;;;;;;;5044230;28;20880;-50
2023/02/25 00:39:15;;;;;;;5.65;5.15;;;;;;;;;;5062388;28;20194;-50
2023/02/25 00:41:41;;;;;;;5.72;5.15;;;;;;;;;;5057024;28;20179;-50
2023/02/25 00:44:07;;;;;;;5.50;5.00;;;;;;;;;;5056626;28;20190;-50
2023/02/25 00:46:33;;;;;;;5.70;5.20;;;;;;;;;;5054955;28;20289;-50
2023/02/25 00:48:59;;;;;;;5.22;4.70;;;;;;;;;;5049481;28;20512;-50
2023/02/25 00:51:29;;;;;;;5.32;4.82;;;;;;;;;;5052143;28;20199;-50
2023/02/25 00:53:55;;;;;;;5.20;4.53;;;;;;;;;;5056488;28;20626;-51
2023/02/25 00:56:22;;;;;;;5.53;4.45;;;;;;;;;;5055264;28;20260;-50
2023/02/25 00:58:49;;;;;;;6.05;4.13;;;;;;;;;;5047504;28;20262;-50
2023/02/25 01:01:20;;;;;;;4.63;4.18;;;;;;;;;;5059149;28;20179;-51
2023/02/25 01:03:46;;;;;;;4.32;3.92;;;;;;;;;;5048030;28;20200;-51
2023/02/25 01:06:12;;;;;;;5.00;4.35;;;;;;;;;;5044560;28;20194;-50
2023/02/25 01:08:38;;;;;;;4.07;3.72;;;;;;;;;;5055437;28;20211;-51
2023/02/25 01:11:11;;;;;;;4.43;4.03;;;;;;;;;;5057239;28;20305;-51
2023/02/25 01:13:37;;;;;;;4.25;3.85;;;;;;;;;;5052904;28;20197;-51
2023/02/25 01:16:09;;;;;;;4.80;3.40;;;;;;;;;;5052169;28;20206;-51
2023/02/25 01:18:35;;;;;;;4.00;3.60;;;;;;;;;;5047355;28;20180;-51
2023/02/25 01:21:01;;;;;;;4.50;3.80;;;;;;;;;;5044835;28;20180;-50
2023/02/25 01:23:29;;;;;;;4.57;4.18;;;;;;;;;;5051447;28;20183;-51
2023/02/25 01:25:54;;;;;;;4.25;3.80;;;;;;;;;;5059443;28;20193;-51
2023/02/25 01:28:20;;;;;;;4.10;3.53;;;;;;;;;;5056281;28;20188;-50
2023/02/25 01:30:46;;;;;;;4.00;3.63;;;;;;;;;;5055635;28;20183;-50
2023/02/25 01:33:12;;;;;;;3.75;3.15;;;;;;;;;;5042318;28;20226;-51
2023/02/25 01:35:38;;;;;;;3.97;3.60;;;;;;;;;;5054304;28;20269;-50
2023/02/25 01:38:04;;;;;;;3.80;3.50;;;;;;;;;;5058261;28;20190;-50
2023/02/25 01:40:30;;;;;;;3.30;3.00;;;;;;;;;;5043768;28;20191;-50
2023/02/25 01:42:56;;;;;;;3.90;3.50;;;;;;;;;;5050824;28;20172;-51
2023/02/25 01:45:24;;;;;;;4.80;3.50;;;;;;;;;;5049641;28;20234;-50
2023/02/25 01:47:53;;;;;;;4.70;3.60;;;;;;;;;;5068710;28;20194;-51
2023/02/25 01:50:21;;;;;;;3.38;3.05;;;;;;;;;;5068036;28;20229;-51
2023/02/25 01:52:47;;;;;;;4.00;3.13;;;;;;;;;;5056387;28;20175;-50
2023/02/25 01:55:13;;;;;;;3.10;2.90;;;;;;;;;;5054792;28;20215;-51
2023/02/25 01:57:39;;;;;;;3.20;2.90;;;;;;;;;;5057471;28;20178;-51
2023/02/25 02:00:16;;;;;;;3.15;2.75;;;;;;;;;;5054168;28;20184;-51
2023/02/25 02:02:43;;;;;;;3.22;2.90;;;;;;;;;;5051616;28;20198;-50
2023/02/25 02:05:09;;;;;;;3.25;2.95;;;;;;;;;;5054838;28;20570;-51
2023/02/25 02:07:35;;;;;;;2.90;2.60;;;;;;;;;;5055210;28;20213;-50
2023/02/25 02:10:01;;;;;;;3.40;2.90;;;;;;;;;;5057258;28;20194;-51
2023/02/25 02:12:28;;;;;;;2.80;2.58;;;;;;;;;;5050495;28;20187;-51
2023/02/25 02:14:55;;;;;;;3.50;2.92;;;;;;;;;;5059167;28;20289;-50
2023/02/25 02:17:25;;;;;;;2.88;2.63;;;;;;;;;;5051861;28;20237;-51
2023/02/25 02:19:59;;;;;;;2.83;2.63;;;;;;;;;;5059610;28;20189;-51
2023/02/25 02:22:31;;;;;;;3.08;2.72;;;;;;;;;;5061223;28;20196;-51
2023/02/25 02:25:16;;;;;;;3.42;2.55;;;;;;;;;;5047850;28;20263;-50
2023/02/25 02:27:51;;;;;;;2.80;2.50;;;;;;;;;;5039664;28;20187;-51
2023/02/25 02:30:17;;;;;;;2.58;2.13;;;;;;;;;;5061317;28;20202;-49
2023/02/25 02:32:47;;;;;;;2.53;2.30;;;;;;;;;;5069850;28;20189;-51
2023/02/25 02:35:18;;;;;;;2.63;2.10;;;;;;;;;;5061051;28;20212;-51
2023/02/25 02:38:17;;;;;;;2.58;2.38;;;;;;;;;;5042593;28;20503;-50
2023/02/25 02:40:50;;;;;;;2.38;2.17;;;;;;;;;;5040974;28;20194;-50
2023/02/25 02:43:23;;;;;;;2.90;2.60;;;;;;;;;;5051426;28;20539;-51
2023/02/25 02:45:53;;;;;;;2.40;2.20;;;;;;;;;;5049037;28;20183;-51
2023/02/25 02:48:33;;;;;;;2.47;2.28;;;;;;;;;;5047960;28;20192;-50
2023/02/25 02:51:04;;;;;;;2.08;1.98;;;;;;;;;;5039134;28;20563;-50
2023/02/25 02:53:38;;;;;;;2.42;2.22;;;;;;;;;;5052750;28;20232;-50
2023/02/25 02:56:06;;;;;;;2.92;2.30;;;;;;;;;;5050466;28;20210;-50
2023/02/25 02:58:37;;;;;;;2.60;2.40;;;;;;;;;;5039873;28;20182;-51
2023/02/25 03:01:08;;;;;;;3.97;2.05;;;;;;;;;;5042865;28;20250;-51
2023/02/25 03:03:43;;;;;;;2.20;1.92;;;;;;;;;;5046613;28;20202;-51
2023/02/25 03:06:11;;;;;;;3.33;2.10;;;;;;;;;;5043236;28;20187;-51
2023/02/25 03:08:46;;;;;;;2.30;2.05;;;;;;;;;;5044624;28;20196;-50
2023/02/25 03:11:12;;;;;;;2.30;2.00;;;;;;;;;;5053226;28;20195;-51
2023/02/25 03:13:38;;;;;;;2.75;2.10;;;;;;;;;;5046321;28;20194;-51
2023/02/25 03:16:06;;;;;;;2.10;1.83;;;;;;;;;;5043691;28;20241;-51
2023/02/25 03:18:36;;;;;;;2.75;2.05;;;;;;;;;;5046278;28;20184;-51
2023/02/25 03:21:06;;;;;;;2.55;1.90;;;;;;;;;;5064414;28;20321;-51
2023/02/25 03:23:33;;;;;;;1.92;1.83;;;;;;;;;;5056959;28;20456;-51
2023/02/25 03:26:18;;;;;;;2.55;1.88;;;;;;;;;;5047320;28;20644;-51
2023/02/25 03:28:45;;;;;;;3.05;1.70;;;;;;;;;;5063247;28;20200;-51
2023/02/25 03:31:22;;;;;;;3.10;2.15;;;;;;;;;;5042111;28;20184;-50
2023/02/25 03:33:52;;;;;;;2.38;1.80;;;;;;;;;;5055021;28;20193;-51
2023/02/25 03:36:19;;;;;;;2.70;1.70;;;;;;;;;;5054709;28;20211;-51
2023/02/25 03:38:47;;;;;;;2.15;1.80;;;;;;;;;;5043156;28;20179;-50
2023/02/25 03:41:14;;;;;;;2.10;1.90;;;;;;;;;;5042018;28;20554;-51
2023/02/25 03:43:43;;;;;;;1.70;1.60;;;;;;;;;;5056651;28;20426;-51
2023/02/25 03:46:10;;;;;;;2.38;1.75;;;;;;;;;;5047614;28;20325;-50
2023/02/25 03:48:37;;;;;;;1.60;1.40;;;;;;;;;;5049799;28;20258;-51
2023/02/25 03:51:04;;;;;;;1.50;1.40;;;;;;;;;;5053341;28;20254;-51
2023/02/25 03:53:30;;;;;;;1.55;1.45;;;;;;;;;;5050272;28;20183;-51
2023/02/25 03:55:57;;;;;;;1.77;1.55;;;;;;;;;;5059869;28;20221;-51
2023/02/25 03:58:23;;;;;;;1.83;1.58;;;;;;;;;;5060194;28;20196;-51
2023/02/25 04:00:52;;;;;;;3.28;1.55;;;;;;;;;;5062733;28;20263;-51
2023/02/25 04:03:18;;;;;;;2.45;1.67;;;;;;;;;;5051155;28;20267;-50
2023/02/25 04:05:44;;;;;;;2.45;1.50;;;;;;;;;;5059660;28;20521;-50
2023/02/25 04:08:14;;;;;;;1.58;1.40;;;;;;;;;;5056508;28;20207;-50
2023/02/25 04:10:42;;;;;;;2.15;1.50;;;;;;;;;;5055172;28;20186;-51
2023/02/25 04:13:08;;;;;;;1.48;1.38;;;;;;;;;;5052239;28;20477;-51
2023/02/25 04:15:34;;;;;;;1.85;1.30;;;;;;;;;;5060885;28;20277;-51
2023/02/25 04:18:00;;;;;;;1.60;1.45;;;;;;;;;;5065871;28;20267;-51
2023/02/25 04:20:28;;;;;;;1.45;1.27;;;;;;;;;;5064600;28;20182;-50
2023/02/25 04:22:54;;;;;;;1.58;1.48;;;;;;;;;;5057211;28;20615;-51
2023/02/25 04:25:20;;;;;;;2.03;1.38;;;;;;;;;;5053772;28;20199;-51
2023/02/25 04:27:46;;;;;;;2.00;1.30;;;;;;;;;;5043244;28;20183;-51
2023/02/25 04:30:12;;;;;;;2.22;1.25;;;;;;;;;;5061067;28;20287;-51
2023/02/25 04:32:38;;;;;;;2.78;1.60;;;;;;;;;;5064017;28;20191;-51
2023/02/25 04:35:06;;;;;;;2.42;1.40;;;;;;;;;;5058277;28;20213;-51
2023/02/25 04:37:32;;;;;;;2.15;1.40;;;;;;;;;;5057858;28;20177;-51
2023/02/25 04:39:58;;;;;;;1.63;1.23;;;;;;;;;;5046639;28;20176;-51
2023/02/25 04:42:23;;;;;;;1.80;1.40;;;;;;;;;;5044602;28;20179;-51
2023/02/25 04:44:49;;;;;;;1.83;1.40;;;;;;;;;;5057943;28;20180;-51
2023/02/25 04:47:17;;;;;;;2.00;1.30;;;;;;;;;;5049856;28;20479;-50
2023/02/25 04:49:43;;;;;;;1.67;1.45;;;;;;;;;;5043908;28;20630;-51
2023/02/25 04:52:18;;;;;;;1.42;1.33;;;;;;;;;;5042450;28;20187;-50
2023/02/25 04:54:44;;;;;;;1.67;1.20;;;;;;;;;;5039053;28;20183;-50
2023/02/25 04:57:10;;;;;;;1.77;1.40;;;;;;;;;;5047723;28;20182;-51
2023/02/25 04:59:36;;;;;;;2.38;1.38;;;;;;;;;;5055944;28;20183;-51
2023/02/25 05:02:03;;;;;;;1.08;0.98;;;;;;;;;;5048152;28;20254;-50
2023/02/25 05:04:29;;;;;;;1.27;1.10;;;;;;;;;;5048174;28;20183;-51
2023/02/25 05:06:55;;;;;;;1.90;1.20;;;;;;;;;;5047067;28;20186;-50
2023/02/25 05:09:21;;;;;;;1.65;1.10;;;;;;;;;;5053423;28;20206;-51
2023/02/25 05:11:47;;;;;;;1.30;1.10;;;;;;;;;;5047837;28;20254;-51
2023/02/25 05:14:12;;;;;;;3.35;1.13;;;;;;;;;;5070050;28;20182;-50
2023/02/25 05:16:38;;;;;;;2.38;1.30;;;;;;;;;;5038684;28;20289;-51
2023/02/25 05:19:04;;;;;;;1.35;1.10;;;;;;;;;;5042604;28;20231;-50
2023/02/25 05:21:30;;;;;;;1.13;1.02;;;;;;;;;;5047064;28;20203;-51
2023/02/25 05:23:56;;;;;;;1.17;1.08;;;;;;;;;;5041945;28;20171;-50
2023/02/25 05:26:23;;;;;;;2.08;1.20;;;;;;;;;;5044166;28;20213;-51
2023/02/25 05:28:50;;;;;;;1.95;1.10;;;;;;;;;;5062244;28;20269;-50
2023/02/25 05:31:16;;;;;;;1.55;1.02;;;;;;;;;;5051429;28;20198;-50
2023/02/25 05:33:42;;;;;;;1.10;1.00;;;;;;;;;;5038940;28;20187;-51
2023/02/25 05:36:09;;;;;;;1.40;1.00;;;;;;;;;;5042280;28;20270;-50
2023/02/25 05:38:35;;;;;;;1.08;1.00;;;;;;;;;;5054799;28;20176;-50
2023/02/25 05:41:04;;;;;;;1.48;1.10;;;;;;;;;;5047148;28;20204;-50
2023/02/25 05:43:30;;;;;;;1.00;1.00;;;;;;;;;;5045111;28;20190;-51
2023/02/25 05:45:57;;;;;;;0.98;0.95;;;;;;;;;;5061953;28;20166;-51
2023/02/25 05:48:23;;;;;;;1.63;1.20;;;;;;;;;;5065616;28;20229;-50
2023/02/25 05:50:50;;;;;;;1.80;0.98;;;;;;;;;;5065068;28;20213;-50
2023/02/25 05:53:16;;;;;;;1.10;0.90;;;;;;;;;;5051631;28;20237;-51
2023/02/25 05:55:42;;;;;;;1.00;0.98;;;;;;;;;;5067385;28;20203;-51
2023/02/25 05:58:09;;;;;;;1.88;1.10;;;;;;;;;;5067939;28;20185;-51
2023/02/25 06:00:35;;;;;;;1.27;1.08;;;;;;;;;;5067291;28;20232;-51
2023/02/25 06:03:01;;;;;;;1.42;1.02;;;;;;;;;;5050788;28;20182;-50
2023/02/25 06:05:29;;;;;;;1.77;1.20;;;;;;;;;;5058837;28;20183;-51
2023/02/25 06:07:55;;;;;;;1.60;1.20;;;;;;;;;;5067654;28;20262;-51
2023/02/25 06:10:21;;;;;;;1.63;0.95;;;;;;;;;;5051558;28;20565;-50
2023/02/25 06:12:47;;;;;;;1.15;0.80;;;;;;;;;;5054081;28;20179;-51
2023/02/25 06:15:13;;;;;;;1.65;1.00;;;;;;;;;;5048977;28;20203;-50
2023/02/25 06:17:39;;;;;;;1.13;0.95;;;;;;;;;;5057937;28;20266;-51
2023/02/25 06:20:05;;;;;;;0.73;0.70;;;;;;;;;;5060794;28;20844;-50
2023/02/25 06:22:31;;;;;;;1.02;0.90;;;;;;;;;;5064366;28;20218;-51
2023/02/25 06:24:57;;;;;;;1.10;1.00;;;;;;;;;;5047802;28;20179;-51
2023/02/25 06:27:23;;;;;;;1.10;1.00;;;;;;;;;;5044892;28;20294;-51
2023/02/25 06:29:49;;;;;;;0.95;0.75;;;;;;;;;;5051156;28;20198;-51
2023/02/25 06:32:15;;;;;;;0.85;0.80;;;;;;;;;;5057869;28;20183;-51
2023/02/25 06:34:41;;;;;;;1.42;0.93;;;;;;;;;;5060525;28;21086;-51
2023/02/25 06:37:07;;;;;;;1.38;1.08;;;;;;;;;;5049826;28;20186;-51
2023/02/25 06:39:33;;;;;;;1.02;0.77;;;;;;;;;;5048161;28;20573;-51
2023/02/25 06:41:59;;;;;;;1.00;0.90;;;;;;;;;;5054594;28;20570;-51
2023/02/25 06:44:29;;;;;;;0.75;0.73;;;;;;;;;;5043916;28;20194;-51
2023/02/25 06:46:55;;;;;;;0.93;0.80;;;;;;;;;;5059441;28;20190;-51
2023/02/25 06:49:22;;;;;;;0.80;0.70;;;;;;;;;;5054032;28;20554;-51
2023/02/25 06:51:48;;;;;;;1.02;0.90;;;;;;;;;;5042557;28;20183;-51
2023/02/25 06:54:14;;;;;;;1.33;0.80;;;;;;;;;;5053645;28;20195;-51
2023/02/25 06:56:41;;;;;;;1.42;1.15;;;;;;;;;;5049117;28;20438;-51
2023/02/25 06:59:07;;;;;;;1.17;1.08;;;;;;;;;;5049533;28;20448;-51
2023/02/25 07:01:33;;;;;;;1.60;1.50;;;;;;;;;;5044359;28;20192;-51
2023/02/25 07:03:59;;;;;;;2.78;1.38;;;;;;;;;;5050515;28;20179;-51
2023/02/25 07:06:25;;;;;;;2.20;2.00;;;;;;;;;;5059476;28;20182;-51
2023/02/25 07:08:51;;;;;;;2.67;2.05;;;;;;;;;;5041201;28;20338;-51
2023/02/25 07:11:17;;;;;;;2.95;2.33;;;;;;;;;;5056211;28;20193;-53
2023/02/25 07:13:44;;;;;;;8.02;2.75;;;;;;;;;;5057316;28;20187;-55
2023/02/25 07:16:12;;;;;;;3.22;2.55;;;;;;;;;;5050704;28;20214;-61
2023/02/25 07:18:39;;;;;;;4.15;2.58;;;;;;;;;;5045913;28;20187;-53
2023/02/25 07:21:05;;;;;;;8.48;2.80;;;;;;;;;;5046612;28;20560;-53
2023/02/25 07:23:31;;;;;;;6.90;2.50;;;;;;;;;;5045539;28;20434;-53
2023/02/25 07:25:57;;;;;;;2.45;2.17;;;;;;;;;;5052073;28;20182;-54
2023/02/25 07:28:23;;;;;;;4.47;2.47;;;;;;;;;;5072293;28;20198;-53
2023/02/25 07:30:48;;;;;;;7.05;2.20;;;;;;;;;;5056850;28;20273;-53
2023/02/25 07:33:14;;;;;;;6.18;2.40;;;;;;;;;;5052262;28;20187;-53
2023/02/25 07:35:40;;;;;;;3.05;2.13;;;;;;;;;;5041574;28;20595;-53
2023/02/25 07:38:06;;;;;;;8.10;2.10;;;;;;;;;;5056661;28;20193;-53
2023/02/25 07:40:32;;;;;;;6.10;2.00;;;;;;;;;;5058579;28;20203;-53
2023/02/25 07:42:58;;;;;;;7.10;2.53;;;;;;;;;;5060796;28;20181;-53
2023/02/25 07:45:24;;;;;;;2.65;2.08;;;;;;;;;;5050870;28;20218;-53
2023/02/25 07:47:52;;;;;;;3.03;1.90;;;;;;;;;;5055265;28;20266;-53
2023/02/25 07:50:18;;;;;;;3.85;1.75;;;;;;;;;;5062848;28;20266;-53
2023/02/25 07:52:44;;;;;;;3.08;1.98;;;;;;;;;;5055284;28;20275;-53
2023/02/25 07:55:10;;;;;;;6.00;2.00;;;;;;;;;;5051678;28;20694;-53
2023/02/25 07:57:36;;;;;;;3.38;1.85;;;;;;;;;;5046036;28;20179;-53
2023/02/25 08:00:03;;;;;;;2.70;1.60;;;;;;;;;;5043084;28;20298;-53
2023/02/25 08:02:29;;;;;;;4.20;1.83;;;;;;;;;;5051462;28;20198;-51
2023/02/25 08:04:55;;;;;;;2.00;1.45;;;;;;;;;;5054478;28;20599;-57
2023/02/25 08:07:21;;;;;;;3.33;1.70;;;;;;;;;;5058427;28;20204;-57
2023/02/25 08:09:47;;;;;;;2.30;1.45;;;;;;;;;;5048603;28;20180;-57
2023/02/25 08:12:13;;;;;;;3.65;1.52;;;;;;;;;;5059149;28;20244;-57
2023/02/25 08:14:39;;;;;;;6.15;1.65;;;;;;;;;;5065655;28;20616;-57
2023/02/25 08:17:05;;;;;;;5.65;1.75;;;;;;;;;;5047057;28;20219;-57
2023/02/25 08:19:31;;;;;;;2.85;1.65;;;;;;;;;;5050789;28;20229;-57
2023/02/25 08:21:57;;;;;;;3.65;1.67;;;;;;;;;;5069008;28;20537;-57
2023/02/25 08:24:23;;;;;;;4.65;1.60;;;;;;;;;;5063778;28;20179;-57
2023/02/25 08:26:48;;;;;;;4.13;1.60;;;;;;;;;;5059834;28;20190;-57
2023/02/25 08:29:15;;;;;;;6.35;1.73;;;;;;;;;;5056983;28;20234;-57
2023/02/25 08:31:40;;;;;;;3.53;1.35;;;;;;;;;;5059877;28;20206;-57
2023/02/25 08:34:07;;;;;;;1.50;1.25;;;;;;;;;;5055027;28;20555;-57
2023/02/25 08:36:33;;;;;;;4.70;1.50;;;;;;;;;;5052016;28;20217;-57
2023/02/25 08:38:59;;;;;;;4.18;1.40;;;;;;;;;;5060495;28;20187;-57
2023/02/25 08:41:26;;;;;;;1.75;1.30;;;;;;;;;;5047773;28;20283;-57
2023/02/25 08:43:53;;;;;;;3.42;1.17;;;;;;;;;;5055890;28;20229;-57
2023/02/25 08:46:19;;;;;;;3.05;1.42;;;;;;;;;;5063358;28;20473;-57
2023/02/25 08:48:47;;;;;;;1.98;1.10;;;;;;;;;;5047869;28;20183;-57
2023/02/25 08:51:14;;;;;;;2.17;1.42;;;;;;;;;;5046656;28;20562;-57
2023/02/25 08:53:40;;;;;;;2.13;1.20;;;;;;;;;;5046855;28;20278;-58
2023/02/25 08:56:10;;;;;;;3.25;1.20;;;;;;;;;;5052609;28;20481;-57
2023/02/25 08:58:36;;;;;;;1.30;1.20;;;;;;;;;;5046402;28;20624;-57
2023/02/25 09:01:07;;;;;;;3.15;1.13;;;;;;;;;;5040757;28;20753;-57
2023/02/25 09:03:34;;;;;;;2.28;1.10;;;;;;;;;;5039913;28;20180;-58
2023/02/25 09:06:00;;;;;;;2.10;1.35;;;;;;;;;;5046025;28;20191;-58
2023/02/25 09:08:27;;;;;;;1.98;1.10;;;;;;;;;;5046140;28;20194;-58
2023/02/25 09:10:53;;;;;;;2.47;0.98;;;;;;;;;;5057044;28;20653;-58
2023/02/25 09:13:18;;;;;;;4.03;1.20;;;;;;;;;;5064626;28;20186;-57
2023/02/25 09:15:44;;;;;;;1.92;1.10;;;;;;;;;;5054449;28;20207;-57
2023/02/25 09:18:11;;;;;;;0.80;0.80;;;;;;;;;;5043989;28;20183;-58
2023/02/25 09:20:37;;;;;;;2.08;1.17;;;;;;;;;;5053210;28;20271;-58
2023/02/25 09:23:03;;;;;;;2.13;1.27;;;;;;;;;;5062827;28;20183;-57
2023/02/25 09:25:29;;;;;;;1.10;0.82;;;;;;;;;;5058240;28;20182;-56
2023/02/25 09:27:55;;;;;;;2.25;1.23;;;;;;;;;;5044233;28;20195;-55
2023/02/25 09:30:21;;;;;;;1.33;0.88;;;;;;;;;;5045811;28;20574;-54
2023/02/25 09:32:47;;;;;;;1.90;1.15;;;;;;;;;;5057623;28;20191;-55
2023/02/25 09:35:13;;;;;;;1.98;1.00;;;;;;;;;;5052511;28;20355;-55
2023/02/25 09:37:39;;;;;;;3.03;1.27;;;;;;;;;;5059274;28;20183;-56
2023/02/25 09:40:05;;;;;;;1.80;0.90;;;;;;;;;;5054768;28;20185;-57
2023/02/25 09:42:42;;;;;;;1.20;1.10;;;;;;;;;;5063599;28;20721;-56
2023/02/25 09:45:14;;;;;;;0.88;0.80;;;;;;;;;;5053449;28;20183;-56
2023/02/25 09:47:42;;;;;;;2.15;1.00;;;;;;;;;;5047026;28;20190;-56
2023/02/25 09:50:17;;;;;;;1.17;0.98;;;;;;;;;;5051772;28;20449;-56
2023/02/25 09:52:46;;;;;;;1.20;0.85;;;;;;;;;;5060038;28;20165;-57
2023/02/25 09:55:20;;;;;;;1.52;0.95;;;;;;;;;;5055175;28;20215;-56
2023/02/25 09:57:56;;;;;;;1.67;1.15;;;;;;;;;;5061528;28;20182;-56
2023/02/25 10:00:22;;;;;;;1.58;1.23;;;;;;;;;;5060806;28;20178;-56
2023/02/25 10:02:48;;;;;;;1.80;1.00;;;;;;;;;;5061671;28;20184;-57
2023/02/25 10:05:34;;;;;;;1.83;1.40;;;;;;;;;;5050636;28;20197;-57
2023/02/25 10:08:12;;;;;;;1.95;1.20;;;;;;;;;;5048944;28;20531;-57
2023/02/25 10:10:43;;;;;;;3.00;1.00;;;;;;;;;;5051537;28;20189;-57
2023/02/25 10:13:26;;;;;;;2.10;1.20;;;;;;;;;;5047014;28;20185;-58
2023/02/25 10:16:13;;;;;;;1.92;1.15;;;;;;;;;;5040174;28;20230;-58
2023/02/25 10:19:05;;;;;;;2.72;1.10;;;;;;;;;;5058663;28;20267;-58
2023/02/25 10:21:49;;;;;;;2.65;1.38;;;;;;;;;;5044916;28;20188;-58
2023/02/25 10:24:23;;;;;;;1.90;1.17;;;;;;;;;;5053189;28;20182;-58
2023/02/25 10:26:53;;;;;;;2.92;1.27;;;;;;;;;;5047469;28;20226;-58
2023/02/25 10:29:24;;;;;;;2.65;1.20;;;;;;;;;;5043348;28;20609;-58
2023/02/25 10:31:52;;;;;;;2.13;1.20;;;;;;;;;;5042066;28;20551;-58
2023/02/25 10:34:20;;;;;;;2.15;1.10;;;;;;;;;;5057057;28;20558;-58
2023/02/25 10:36:50;;;;;;;2.67;1.20;;;;;;;;;;5057145;28;20588;-58
2023/02/25 10:39:16;;;;;;;2.35;1.42;;;;;;;;;;5059272;28;20191;-58
2023/02/25 10:41:42;;;;;;;1.13;1.02;;;;;;;;;;5053681;28;20191;-58
2023/02/25 10:44:09;;;;;;;2.50;1.20;;;;;;;;;;5039529;28;20190;-57
2023/02/25 10:46:39;;;;;;;3.08;1.20;;;;;;;;;;5046800;28;20180;-57
2023/02/25 10:49:15;;;;;;;3.88;1.30;;;;;;;;;;5049659;28;20179;-57
2023/02/25 10:51:58;;;;;;;2.38;1.20;;;;;;;;;;5049930;28;20191;-57
2023/02/25 10:54:24;;;;;;;2.58;1.48;;;;;;;;;;5048509;28;20186;-57
2023/02/25 10:56:50;;;;;;;1.63;1.10;;;;;;;;;;5050638;28;20187;-56
2023/02/25 10:59:27;;;;;;;4.05;1.30;;;;;;;;;;5045827;28;20392;-56
2023/02/25 11:01:53;;;;;;;2.10;1.20;;;;;;;;;;5045937;28;20481;-56
2023/02/25 11:04:22;;;;;;;2.55;1.25;;;;;;;;;;5047209;28;20176;-56
2023/02/25 11:06:48;;;;;;;1.73;1.25;;;;;;;;;;5050634;28;20299;-56
2023/02/25 11:09:20;;;;;;;4.00;1.90;;;;;;;;;;5049929;28;20278;-56
2023/02/25 11:12:16;;;;;;;5.35;2.00;;;;;;;;;;5045112;28;20195;-56
2023/02/25 11:14:42;;;;;;;5.50;2.10;;;;;;;;;;5033706;28;20325;-56
2023/02/25 11:17:21;;;;;;;4.60;2.58;;;;;;;;;;5037856;28;20207;-55
2023/02/25 11:19:50;;;;;;;2.90;2.42;;;;;;;;;;5036538;28;20214;-55
2023/02/25 11:22:18;;;;;;;5.40;2.47;;;;;;;;;;5050035;28;20187;-55
2023/02/25 11:24:45;;;;;;;5.90;2.85;;;;;;;;;;5058155;28;20190;-54
2023/02/25 11:27:23;;;;;;;6.18;2.78;;;;;;;;;;5051984;28;20554;-54
2023/02/25 11:29:49;;;;;;;5.50;2.90;;;;;;;;;;5047379;28;20489;-54
2023/02/25 11:32:20;;;;;;;7.13;2.78;;;;;;;;;;5047749;28;20187;-54
2023/02/25 11:34:56;;;;;;;5.50;2.72;;;;;;;;;;5060298;28;20289;-54
2023/02/25 11:37:23;;;;;;;5.45;3.03;;;;;;;;;;5058697;28;20190;-54
2023/02/25 11:39:53;;;;;;;5.20;3.38;;;;;;;;;;5052608;28;20198;-53
2023/02/25 11:42:23;;;;;;;6.20;3.33;;;;;;;;;;5056599;28;20186;-53
2023/02/25 11:44:49;;;;;;;6.88;3.55;;;;;;;;;;5052874;28;20202;-53
2023/02/25 11:47:22;;;;;;;6.80;3.58;;;;;;;;;;5058500;28;20290;-54
2023/02/25 11:50:06;;;;;;;3.80;2.80;;;;;;;;;;5054611;28;20586;-53
2023/02/25 11:52:41;;;;;;;6.03;3.42;;;;;;;;;;5048790;28;20198;-53
2023/02/25 11:55:15;;;;;;;6.20;3.33;;;;;;;;;;5045912;28;20281;-53
2023/02/25 11:57:41;;;;;;;4.43;2.92;;;;;;;;;;5048559;28;20593;-52
2023/02/25 12:00:10;;;;;;;5.43;3.60;;;;;;;;;;5045515;28;20179;-52
2023/02/25 12:02:47;;;;;;;5.22;3.05;;;;;;;;;;5043669;28;20183;-52
2023/02/25 12:05:34;;;;;;;5.20;3.33;;;;;;;;;;5045366;28;20167;-52
2023/02/25 12:08:13;;;;;;;7.25;3.58;;;;;;;;;;5045707;28;20224;-52
2023/02/25 12:11:07;;;;;;;5.07;3.50;;;;;;;;;;5050516;28;20216;-53
2023/02/25 12:13:39;;;;;;;5.47;3.47;;;;;;;;;;5058249;28;20175;-53
2023/02/25 12:16:08;;;;;;;5.22;3.47;;;;;;;;;;5058778;28;20217;-52
2023/02/25 12:18:53;;;;;;;6.00;3.45;;;;;;;;;;5048384;28;20229;-52
2023/02/25 12:21:51;;;;;;;6.60;3.45;;;;;;;;;;5045725;28;20192;-52
2023/02/25 12:24:22;;;;;;;5.20;3.60;;;;;;;;;;5026216;28;20574;-53
2023/02/25 12:27:06;;;;;;;6.18;3.85;;;;;;;;;;5044206;28;20558;-53
2023/02/25 12:29:38;;;;;;;5.70;3.22;;;;;;;;;;5050202;28;20502;-53
2023/02/25 12:32:33;;;;;;;7.07;3.50;;;;;;;;;;5049869;28;20186;-53
2023/02/25 12:34:59;;;;;;;3.67;2.60;;;;;;;;;;5060954;28;20508;-53
2023/02/25 12:37:28;;;;;;;4.30;3.00;;;;;;;;;;5049616;28;20270;-53
2023/02/25 12:40:05;;;;;;;5.00;3.00;;;;;;;;;;5054746;28;20188;-53
2023/02/25 12:42:51;;;;;;;5.57;3.20;;;;;;;;;;5065582;28;20561;-53
2023/02/25 12:45:28;;;;;;;4.97;2.80;;;;;;;;;;5056328;28;20205;-53
2023/02/25 12:48:21;;;;;;;4.88;3.10;;;;;;;;;;5052830;28;20186;-53
2023/02/25 12:51:06;;;;;;;4.05;2.60;;;;;;;;;;5065135;28;20258;-53
2023/02/25 12:53:32;;;;;;;3.17;2.47;;;;;;;;;;5048616;28;20201;-53
2023/02/25 12:56:16;;;;;;;4.32;2.53;;;;;;;;;;5048803;28;20210;-52
2023/02/25 12:58:44;;;;;;;3.60;2.35;;;;;;;;;;5053027;28;20183;-53
2023/02/25 13:01:21;;;;;;;5.18;3.13;;;;;;;;;;5047100;28;20182;-52
2023/02/25 13:03:51;;;;;;;4.93;2.28;;;;;;;;;;5044104;28;20178;-52
2023/02/25 13:06:35;;;;;;;5.70;2.58;;;;;;;;;;5060580;28;20172;-52
2023/02/25 13:09:20;;;;;;;4.85;2.53;;;;;;;;;;5052385;28;20175;-53
2023/02/25 13:11:57;;;;;;;4.07;2.65;;;;;;;;;;5062971;28;20195;-55
2023/02/25 13:14:31;;;;;;;4.40;2.28;;;;;;;;;;5039611;28;20183;-55
2023/02/25 13:17:10;;;;;;;2.95;2.28;;;;;;;;;;5038005;28;20221;-57
2023/02/25 13:19:54;;;;;;;3.30;2.55;;;;;;;;;;5041805;28;20179;-57
2023/02/25 13:22:38;;;;;;;4.05;2.30;;;;;;;;;;5042258;28;20250;-57
2023/02/25 13:25:14;;;;;;;2.70;2.40;;;;;;;;;;5042785;28;20209;-57
2023/02/25 13:27:59;;;;;;;2.83;2.10;;;;;;;;;;5042776;28;20228;-57
2023/02/25 13:30:40;;;;;;;2.78;2.00;;;;;;;;;;5054963;28;20462;-57
2023/02/25 13:33:10;;;;;;;3.55;2.20;;;;;;;;;;5046794;28;20195;-58
2023/02/25 13:35:56;;;;;;;3.50;2.15;;;;;;;;;;5056963;28;20213;-59
2023/02/25 13:38:41;;;;;;;4.03;2.00;;;;;;;;;;5046712;28;20179;-58
2023/02/25 13:41:26;;;;;;;4.10;2.20;;;;;;;;;;5054263;28;20183;-58
2023/02/25 13:44:11;;;;;;;2.33;1.80;;;;;;;;;;5045660;28;20179;-58
2023/02/25 13:46:55;;;;;;;2.92;1.70;;;;;;;;;;5043173;28;20817;-58
2023/02/25 13:49:29;;;;;;;4.20;2.10;;;;;;;;;;5064184;28;20315;-58
2023/02/25 13:51:55;;;;;;;3.53;1.70;;;;;;;;;;5047735;28;20839;-59
2023/02/25 13:54:33;;;;;;;4.50;1.85;;;;;;;;;;5061000;28;20177;-59
2023/02/25 13:57:24;;;;;;;4.82;1.90;;;;;;;;;;5044915;28;20203;-59
2023/02/25 13:59:57;;;;;;;2.53;1.80;;;;;;;;;;5050373;28;20566;-59
2023/02/25 14:02:40;;;;;;;4.75;1.80;;;;;;;;;;5050613;28;20193;-58
2023/02/25 14:05:25;;;;;;;4.05;2.05;;;;;;;;;;5053219;28;20179;-58
2023/02/25 14:08:00;;;;;;;4.00;1.65;;;;;;;;;;5052064;28;20498;-58
2023/02/25 14:10:40;;;;;;;6.00;2.20;;;;;;;;;;5059308;28;20170;-58
2023/02/25 14:13:23;;;;;;;6.72;2.00;;;;;;;;;;5049961;28;20175;-56
2023/02/25 14:16:16;;;;;;;11.02;2.13;;;;;;;;;;5054202;28;20264;-56
2023/02/25 14:18:47;;;;;;;5.80;2.10;;;;;;;;;;5055502;28;20228;-57
2023/02/25 14:21:32;;;;;;;4.82;1.77;;;;;;;;;;5048418;28;20190;-57
2023/02/25 14:24:13;;;;;;;6.57;1.80;;;;;;;;;;5058331;28;20174;-57
2023/02/25 14:26:45;;;;;;;10.35;2.00;;;;;;;;;;5056451;28;20191;-57
2023/02/25 14:29:24;;;;;;;6.38;1.70;;;;;;;;;;5043685;28;20200;-57
2023/02/25 14:32:09;;;;;;;5.45;1.48;;;;;;;;;;5060223;28;20179;-56
2023/02/25 14:34:55;;;;;;;7.03;1.60;;;;;;;;;;5056400;28;20206;-55
2023/02/25 14:37:39;;;;;;;3.42;1.50;;;;;;;;;;5046254;28;20199;-55
2023/02/25 14:40:25;;;;;;;4.57;1.60;;;;;;;;;;5054995;28;20197;-54
2023/02/25 14:42:57;;;;;;;4.28;1.48;;;;;;;;;;5043059;28;20174;-54
2023/02/25 14:45:27;;;;;;;4.20;1.50;;;;;;;;;;5041711;28;20209;-54
2023/02/25 14:48:11;;;;;;;3.33;1.60;;;;;;;;;;5042617;28;20175;-54
2023/02/25 14:50:45;;;;;;;3.30;1.50;;;;;;;;;;5048349;28;20209;-54
2023/02/25 14:53:27;;;;;;;3.85;1.63;;;;;;;;;;5050091;28;20493;-54
2023/02/25 14:55:59;;;;;;;5.65;1.48;;;;;;;;;;5044546;28;20217;-56
2023/02/25 14:58:34;;;;;;;4.18;1.40;;;;;;;;;;5032937;28;20613;-55
2023/02/25 15:01:26;;;;;;;2.72;1.45;;;;;;;;;;5049045;28;20194;-55